VMMC/MFM METAR and TAF weather

Enter ICAO airport designator
Station Type Date Time Source
VMMC METAR 2019/04/25 12:00 UTC NOAA

VMMC 251200Z 20008KT 9999 FEW020 28/25 Q1008 NOSIG


Station Type Date Time Source
VMMC Decoded METAR 2019/04/25 12:00 UTC NOAA

Taipa, Macau (VMMC) 22-10N 113-34E
Apr 25, 2019 - 08:00 AM EDT / 2019.04.25 1200 UTC
Wind: from the SSW (200 degrees) at 9 MPH (8 KT):0
Visibility: greater than 7 mile(s):0
Sky conditions: mostly clear
Temperature: 82 F (28 C)
Dew Point: 77 F (25 C)
Relative Humidity: 83%
Pressure (altimeter): 29.77 in. Hg (1008 hPa)
ob: VMMC 251200Z 20008KT 9999 FEW020 28/25 Q1008 NOSIG
cycle: 12

Station Type Date Time Source
VMMC TAF 2019/04/25 12:21 UTC NOAA

TAF VMMC 251102Z 2512/2618 20008KT 9999 FEW012 SCT025
TEMPO 2521/2606 4000 SHRA FEW008CB SCT015 PROB40
TEMPO 2523/2603 VRB15G25KT 2500 TSRA

Example: see airport list